Time;durP1;ratioP1;P1;durP2;ratioP2;P2;SDS_P1;SDS_P2;PMS_P1;PMS_P2;Temp;Humidity;BMP_temperature;BMP_pressure;BME280_temperature;BME280_humidity;BME280_pressure;Samples;Min_cycle;Max_cycle;Signal;HPM_P1;HPM_P2
2023/05/17 00:00:50;;;;;;;2.83;1.45;;;11.40;99.90;;;;;;2105528;28;20024;-72
2023/05/17 00:01:50;;;;;;;5.18;2.38;;;11.40;99.90;;;;;;2104791;28;20472;-72
2023/05/17 00:02:51;;;;;;;5.32;1.90;;;11.40;99.90;;;;;;2106744;28;20491;-72
2023/05/17 00:03:53;;;;;;;3.05;1.80;;;11.40;99.90;;;;;;2104776;28;20027;-72
2023/05/17 00:04:53;;;;;;;2.88;1.88;;;11.30;99.90;;;;;;2100978;28;20099;-72
2023/05/17 00:05:54;;;;;;;3.47;2.03;;;11.30;99.90;;;;;;2106090;28;20024;-72
2023/05/17 00:06:54;;;;;;;3.00;1.90;;;11.30;99.90;;;;;;2102997;28;20032;-72
2023/05/17 00:07:55;;;;;;;4.47;1.65;;;11.30;99.90;;;;;;2105436;28;20516;-72
2023/05/17 00:08:55;;;;;;;2.55;1.70;;;11.30;99.90;;;;;;2093477;28;20063;-72
2023/05/17 00:09:56;;;;;;;4.03;2.25;;;11.20;99.90;;;;;;2101409;28;20036;-72
2023/05/17 00:10:56;;;;;;;3.95;1.65;;;11.20;99.90;;;;;;2105930;28;20035;-72
2023/05/17 00:11:57;;;;;;;4.15;1.98;;;11.20;99.90;;;;;;2096551;28;20042;-72
2023/05/17 00:12:57;;;;;;;4.03;1.88;;;11.20;99.90;;;;;;2102026;28;20032;-72
2023/05/17 00:13:58;;;;;;;3.78;1.92;;;11.20;99.90;;;;;;2104590;28;20043;-72
2023/05/17 00:14:58;;;;;;;3.60;2.10;;;11.10;99.90;;;;;;2101352;28;20476;-72
2023/05/17 00:15:59;;;;;;;2.60;1.90;;;11.10;99.90;;;;;;2101609;28;20099;-72
2023/05/17 00:17:00;;;;;;;4.75;1.92;;;11.10;99.90;;;;;;2102221;28;20797;-72
2023/05/17 00:18:00;;;;;;;3.88;2.60;;;11.10;99.90;;;;;;2102522;28;20032;-72
2023/05/17 00:19:01;;;;;;;3.83;1.85;;;11.10;99.90;;;;;;2103815;28;20041;-72
2023/05/17 00:20:02;;;;;;;2.67;1.83;;;11.10;99.90;;;;;;2102282;28;20031;-72
2023/05/17 00:21:03;;;;;;;3.83;2.03;;;11.10;99.90;;;;;;2103494;28;20120;-72
2023/05/17 00:22:03;;;;;;;3.35;1.88;;;11.10;99.90;;;;;;2104218;28;20039;-72
2023/05/17 00:23:04;;;;;;;3.90;1.95;;;11.00;99.90;;;;;;2103882;28;20023;-72
2023/05/17 00:24:05;;;;;;;3.90;2.17;;;11.00;99.90;;;;;;2104601;28;20032;-72
2023/05/17 00:25:06;;;;;;;4.43;2.10;;;11.00;99.90;;;;;;2104103;28;20512;-73
2023/05/17 00:26:07;;;;;;;4.80;1.95;;;11.00;99.90;;;;;;2102163;28;20096;-72
2023/05/17 00:27:07;;;;;;;3.40;2.22;;;11.00;99.90;;;;;;2104049;28;20519;-72
2023/05/17 00:28:08;;;;;;;4.15;1.92;;;11.00;99.90;;;;;;2102767;28;20026;-72
2023/05/17 00:29:08;;;;;;;3.80;2.53;;;10.90;99.90;;;;;;2103517;28;20028;-72
2023/05/17 00:30:09;;;;;;;2.88;1.85;;;10.90;99.90;;;;;;2102412;28;21303;-72
2023/05/17 00:31:10;;;;;;;5.60;2.05;;;10.90;99.90;;;;;;2105365;28;20016;-72
2023/05/17 00:32:10;;;;;;;3.80;2.10;;;10.90;99.90;;;;;;2104719;28;20036;-72
2023/05/17 00:33:11;;;;;;;4.38;2.30;;;10.90;99.90;;;;;;2101699;28;20507;-72
2023/05/17 00:34:11;;;;;;;4.28;2.30;;;10.90;99.90;;;;;;2105399;28;20376;-72
2023/05/17 00:35:12;;;;;;;3.20;2.00;;;10.90;99.90;;;;;;2107666;28;20031;-72
2023/05/17 00:36:12;;;;;;;6.72;2.70;;;10.80;99.90;;;;;;2103516;28;20031;-72
2023/05/17 00:37:13;;;;;;;5.28;2.28;;;10.80;99.90;;;;;;2106532;28;20049;-72
2023/05/17 00:38:13;;;;;;;3.80;2.20;;;10.80;99.90;;;;;;2103135;28;20789;-72
2023/05/17 00:39:14;;;;;;;4.40;2.17;;;10.80;99.90;;;;;;2102315;28;20077;-72
2023/05/17 00:40:15;;;;;;;4.85;2.28;;;10.80;99.90;;;;;;2106272;28;20027;-72
2023/05/17 00:41:16;;;;;;;6.35;2.58;;;10.80;99.90;;;;;;2103227;28;20050;-72
2023/05/17 00:42:16;;;;;;;3.72;2.47;;;10.80;99.90;;;;;;2103961;28;20468;-72
2023/05/17 00:43:17;;;;;;;3.65;2.10;;;10.80;99.90;;;;;;2103636;28;20064;-72
2023/05/17 00:44:17;;;;;;;3.60;2.35;;;10.80;99.90;;;;;;2102454;28;20024;-72
2023/05/17 00:45:18;;;;;;;5.13;2.45;;;10.70;99.90;;;;;;2103359;28;20028;-72
2023/05/17 00:46:18;;;;;;;5.22;2.55;;;10.80;99.90;;;;;;2103964;28;20024;-72
2023/05/17 00:47:19;;;;;;;5.78;2.30;;;10.70;99.90;;;;;;2104166;28;20075;-72
2023/05/17 00:48:20;;;;;;;6.07;2.83;;;10.70;99.90;;;;;;2103230;28;20428;-72
2023/05/17 00:49:20;;;;;;;5.47;2.10;;;10.70;99.90;;;;;;2103014;28;20058;-72
2023/05/17 00:50:21;;;;;;;4.57;2.20;;;10.70;99.90;;;;;;2103257;28;20111;-72
2023/05/17 00:51:21;;;;;;;6.30;2.90;;;10.70;99.90;;;;;;2103685;28;20032;-72
2023/05/17 00:52:22;;;;;;;4.70;2.05;;;10.70;99.90;;;;;;2102501;28;20024;-72
2023/05/17 00:53:23;;;;;;;4.80;2.40;;;10.70;99.90;;;;;;2102941;28;20025;-71
2023/05/17 00:54:25;;;;;;;4.68;2.95;;;10.70;99.90;;;;;;2103879;28;20105;-71
2023/05/17 00:55:26;;;;;;;6.32;2.97;;;10.70;99.90;;;;;;2104035;28;20532;-71
2023/05/17 00:56:26;;;;;;;5.25;2.40;;;10.70;99.90;;;;;;2104788;28;20024;-71
2023/05/17 00:57:28;;;;;;;6.03;2.67;;;10.70;99.90;;;;;;2103610;28;20066;-71
2023/05/17 00:58:29;;;;;;;5.72;2.63;;;10.60;99.90;;;;;;2101941;28;20039;-71
2023/05/17 00:59:30;;;;;;;4.43;2.42;;;10.60;99.90;;;;;;2105327;28;20499;-71
2023/05/17 01:00:32;;;;;;;4.05;2.70;;;10.60;99.90;;;;;;2102881;28;20578;-71
2023/05/17 01:01:35;;;;;;;4.35;2.45;;;10.60;99.90;;;;;;2103598;28;20480;-71
2023/05/17 01:02:36;;;;;;;6.10;2.45;;;10.60;99.90;;;;;;2101382;28;20024;-71
2023/05/17 01:03:37;;;;;;;4.43;2.72;;;10.60;99.90;;;;;;2104064;28;20027;-71
2023/05/17 01:04:38;;;;;;;6.55;2.40;;;10.60;99.90;;;;;;2106775;28;20023;-72
2023/05/17 01:05:38;;;;;;;5.43;3.10;;;10.60;99.90;;;;;;2105732;28;20029;-72
2023/05/17 01:06:39;;;;;;;5.45;2.45;;;10.60;99.90;;;;;;2103241;28;20497;-72
2023/05/17 01:07:39;;;;;;;5.05;2.45;;;10.50;99.90;;;;;;2105669;28;20020;-72
2023/05/17 01:08:41;;;;;;;6.15;2.70;;;10.50;99.90;;;;;;2102175;28;20027;-72
2023/05/17 01:09:41;;;;;;;3.20;2.22;;;10.50;99.90;;;;;;2101512;28;20148;-72
2023/05/17 01:11:04;;;;;;;4.32;2.20;;;10.50;99.90;;;;;;2103733;28;20045;-72
2023/05/17 01:12:42;;;;;;;5.53;2.97;;;10.50;99.90;;;;;;2102747;28;20024;-72
2023/05/17 01:13:45;;;;;;;7.47;3.17;;;10.40;99.90;;;;;;2103047;28;20423;-72
2023/05/17 01:15:13;;;;;;;9.23;2.97;;;10.40;99.90;;;;;;2103667;28;20114;-72
2023/05/17 01:16:24;;;;;;;3.80;2.20;;;10.40;99.90;;;;;;2101902;28;20036;-72
2023/05/17 01:17:34;;;;;;;7.53;2.85;;;10.40;99.90;;;;;;2104006;28;20035;-71
2023/05/17 01:18:43;;;;;;;8.20;2.75;;;10.30;99.90;;;;;;2104167;28;20020;-71
2023/05/17 01:19:52;;;;;;;5.47;2.70;;;10.30;99.90;;;;;;2104184;28;20023;-71
2023/05/17 01:20:55;;;;;;;3.83;2.70;;;10.30;99.90;;;;;;2105238;28;20043;-71
2023/05/17 01:22:05;;;;;;;4.95;2.10;;;10.30;99.90;;;;;;2104928;28;20458;-71
2023/05/17 01:23:43;;;;;;;7.20;2.60;;;10.30;99.90;;;;;;2105294;28;20032;-71
2023/05/17 01:24:55;;;;;;;5.57;3.00;;;10.30;99.90;;;;;;2103515;28;20660;-71
2023/05/17 01:26:23;;;;;;;5.95;2.72;;;10.20;99.90;;;;;;2106103;28;20032;-71
2023/05/17 01:27:27;;;;;;;4.18;2.72;;;10.20;99.90;;;;;;2104293;28;20040;-71
2023/05/17 01:28:30;;;;;;;5.47;2.83;;;10.20;99.90;;;;;;2094319;28;20075;-71
2023/05/17 01:29:34;;;;;;;6.10;3.45;;;10.20;99.90;;;;;;2094734;28;20075;-71
2023/05/17 01:30:36;;;;;;;7.20;2.90;;;10.20;99.90;;;;;;2106871;28;20023;-72
2023/05/17 01:31:38;;;;;;;5.32;2.90;;;10.20;99.90;;;;;;2107172;28;20095;-72
2023/05/17 01:32:42;;;;;;;7.40;3.10;;;10.10;99.90;;;;;;2104317;28;20032;-72
2023/05/17 01:33:43;;;;;;;3.80;2.90;;;10.20;99.90;;;;;;2107317;28;20020;-72
2023/05/17 01:34:43;;;;;;;5.50;2.42;;;10.10;99.90;;;;;;2104721;28;20061;-72
2023/05/17 01:35:44;;;;;;;7.93;3.40;;;10.10;99.90;;;;;;2105653;28;20421;-71
2023/05/17 01:36:44;;;;;;;7.95;3.10;;;10.10;99.90;;;;;;2103610;28;20019;-71
2023/05/17 01:37:45;;;;;;;6.25;2.55;;;10.20;99.90;;;;;;2103461;28;20028;-71
2023/05/17 01:38:46;;;;;;;7.25;2.60;;;10.10;99.90;;;;;;2104310;28;20032;-71
2023/05/17 01:39:47;;;;;;;5.85;2.90;;;10.10;99.90;;;;;;2102925;28;20016;-71
2023/05/17 01:41:06;;;;;;;6.05;3.60;;;10.10;99.90;;;;;;2102454;28;20484;-71
2023/05/17 01:42:26;;;;;;;4.07;2.38;;;10.10;99.90;;;;;;2103341;28;20115;-71
2023/05/17 01:43:47;;;;;;;6.60;3.05;;;10.00;99.90;;;;;;2105155;28;20020;-71
2023/05/17 01:44:52;;;;;;;8.27;3.30;;;10.00;99.90;;;;;;2105200;28;20020;-71
2023/05/17 01:46:04;;;;;;;5.97;2.60;;;10.00;99.90;;;;;;2104768;28;20028;-71
2023/05/17 01:47:52;;;;;;;4.70;2.65;;;10.00;99.90;;;;;;2105151;28;20047;-71
2023/05/17 01:49:16;;;;;;;6.40;2.80;;;10.00;99.90;;;;;;2086494;28;20497;-71
2023/05/17 01:50:22;;;;;;;5.82;2.97;;;9.90;99.90;;;;;;2096638;28;20043;-71
2023/05/17 01:51:27;;;;;;;5.68;2.50;;;9.90;99.90;;;;;;2104850;28;20088;-71
2023/05/17 01:52:47;;;;;;;4.50;2.47;;;9.90;99.90;;;;;;2104008;28;20040;-71
2023/05/17 01:53:54;;;;;;;3.13;2.30;;;9.90;99.90;;;;;;2106412;28;20031;-71
2023/05/17 01:55:06;;;;;;;6.32;2.67;;;9.90;99.90;;;;;;2103191;28;20028;-71
2023/05/17 01:56:10;;;;;;;7.40;3.47;;;9.90;99.90;;;;;;2105662;28;20024;-71
2023/05/17 01:57:13;;;;;;;7.57;3.08;;;9.90;99.90;;;;;;2103378;28;20032;-71
2023/05/17 01:58:17;;;;;;;5.82;2.35;;;9.90;99.90;;;;;;2102585;28;20093;-71
2023/05/17 01:59:24;;;;;;;4.63;2.67;;;9.90;99.90;;;;;;2107394;28;20024;-71
2023/05/17 02:00:26;;;;;;;6.63;2.63;;;9.90;99.90;;;;;;2103988;28;20046;-71
2023/05/17 02:01:29;;;;;;;6.15;2.72;;;9.80;99.90;;;;;;2104655;28;20020;-72
2023/05/17 02:02:29;;;;;;;6.45;3.17;;;9.80;99.90;;;;;;2103355;28;20027;-72
2023/05/17 02:03:30;;;;;;;7.93;3.58;;;9.90;99.90;;;;;;2100783;28;20024;-71
2023/05/17 02:04:31;;;;;;;8.23;3.50;;;9.80;99.90;;;;;;2105254;28;20087;-71
2023/05/17 02:05:31;;;;;;;9.30;3.20;;;9.80;99.90;;;;;;2107948;28;20028;-71
2023/05/17 02:06:32;;;;;;;6.00;3.08;;;9.80;99.90;;;;;;2105452;28;20081;-71
2023/05/17 02:07:32;;;;;;;8.82;3.70;;;9.80;99.90;;;;;;2104319;28;20027;-71
2023/05/17 02:08:33;;;;;;;6.55;3.85;;;9.80;99.90;;;;;;2101979;28;20032;-71
2023/05/17 02:09:33;;;;;;;8.02;3.45;;;9.80;99.90;;;;;;2103712;28;20667;-71
2023/05/17 02:10:34;;;;;;;7.35;3.33;;;9.80;99.90;;;;;;2101098;28;20016;-72
2023/05/17 02:11:35;;;;;;;8.43;3.40;;;9.80;99.90;;;;;;2108562;28;20053;-71
2023/05/17 02:12:36;;;;;;;4.85;2.90;;;9.80;99.90;;;;;;2108744;28;20008;-71
2023/05/17 02:13:36;;;;;;;5.78;3.00;;;9.80;99.90;;;;;;2104209;28;20024;-71
2023/05/17 02:14:37;;;;;;;6.18;3.33;;;9.80;99.90;;;;;;2107272;28;20035;-71
2023/05/17 02:15:37;;;;;;;6.70;3.20;;;9.70;99.90;;;;;;2104578;28;20555;-71
2023/05/17 02:16:38;;;;;;;8.27;3.15;;;9.70;99.90;;;;;;2107506;28;20110;-73
2023/05/17 02:17:41;;;;;;;4.50;2.70;;;9.70;99.90;;;;;;2103557;28;20072;-73
2023/05/17 02:18:42;;;;;;;8.82;2.90;;;9.70;99.90;;;;;;2105638;28;20116;-73
2023/05/17 02:19:43;;;;;;;8.02;3.25;;;9.70;99.90;;;;;;2103861;28;20028;-73
2023/05/17 02:20:43;;;;;;;5.28;2.95;;;9.70;99.90;;;;;;2106419;28;20023;-73
2023/05/17 02:21:44;;;;;;;7.28;3.03;;;9.70;99.90;;;;;;2105049;28;20029;-73
2023/05/17 02:22:44;;;;;;;6.80;3.47;;;9.70;99.90;;;;;;2107687;28;20023;-71
2023/05/17 02:23:45;;;;;;;8.00;3.38;;;9.70;99.90;;;;;;2103813;28;20020;-72
2023/05/17 02:24:46;;;;;;;8.27;3.40;;;9.70;99.90;;;;;;2106634;28;20019;-72
2023/05/17 02:25:46;;;;;;;8.10;3.55;;;9.70;99.90;;;;;;2107548;28;20020;-72
2023/05/17 02:26:47;;;;;;;8.57;3.38;;;9.70;99.90;;;;;;2102541;28;20028;-71
2023/05/17 02:27:48;;;;;;;8.70;3.60;;;9.70;99.90;;;;;;2104133;28;20093;-71
2023/05/17 02:28:48;;;;;;;9.13;3.25;;;9.70;99.90;;;;;;2103583;28;20054;-71
2023/05/17 02:29:49;;;;;;;7.30;3.78;;;9.70;99.90;;;;;;2104428;28;20020;-71
2023/05/17 02:30:49;;;;;;;9.88;3.45;;;9.60;99.90;;;;;;2105461;28;20016;-72
2023/05/17 02:31:50;;;;;;;5.80;3.28;;;9.60;99.90;;;;;;2105055;28;20050;-71
2023/05/17 02:32:51;;;;;;;8.85;3.17;;;9.60;99.90;;;;;;2103787;28;20027;-72
2023/05/17 02:33:54;;;;;;;8.32;2.72;;;9.60;99.90;;;;;;2103854;28;20052;-72
2023/05/17 02:34:55;;;;;;;6.13;2.97;;;9.60;99.90;;;;;;2105285;28;20044;-71
2023/05/17 02:35:56;;;;;;;3.10;2.80;;;9.60;99.90;;;;;;2102622;28;20591;-71
2023/05/17 02:36:56;;;;;;;4.85;2.90;;;9.60;99.90;;;;;;2103042;28;20111;-71
2023/05/17 02:37:57;;;;;;;8.95;3.13;;;9.60;99.90;;;;;;2105984;28;20122;-71
2023/05/17 02:38:58;;;;;;;6.20;3.17;;;9.60;99.90;;;;;;2106275;28;20032;-71
2023/05/17 02:39:58;;;;;;;8.40;3.67;;;9.60;99.90;;;;;;2104785;28;20118;-71
2023/05/17 02:40:59;;;;;;;8.40;3.50;;;9.50;99.90;;;;;;2104445;28;20036;-71
2023/05/17 02:41:59;;;;;;;7.05;3.38;;;9.60;99.90;;;;;;2105222;28;20028;-71
2023/05/17 02:43:00;;;;;;;6.38;3.47;;;9.60;99.90;;;;;;2106151;28;20027;-71
2023/05/17 02:44:00;;;;;;;6.88;2.95;;;9.60;99.90;;;;;;2101620;28;20032;-72
2023/05/17 02:45:02;;;;;;;6.40;3.13;;;9.50;99.90;;;;;;2104673;28;20038;-71
2023/05/17 02:46:03;;;;;;;5.47;3.10;;;9.50;99.90;;;;;;2104728;28;20561;-71
2023/05/17 02:47:04;;;;;;;5.70;2.70;;;9.50;99.90;;;;;;2105304;28;20483;-71
2023/05/17 02:48:04;;;;;;;4.82;3.25;;;9.50;99.90;;;;;;2106306;28;20031;-71
2023/05/17 02:49:05;;;;;;;4.88;3.00;;;9.50;99.90;;;;;;2103968;28;20020;-71
2023/05/17 02:50:06;;;;;;;7.40;3.40;;;9.50;99.90;;;;;;2104332;28;20020;-71
2023/05/17 02:51:07;;;;;;;4.78;3.00;;;9.50;99.90;;;;;;2106108;28;20043;-71
2023/05/17 02:52:07;;;;;;;6.60;3.42;;;9.50;99.90;;;;;;2105619;28;20031;-71
2023/05/17 02:53:08;;;;;;;6.78;3.28;;;9.50;99.90;;;;;;2103415;28;20038;-71
2023/05/17 02:54:08;;;;;;;4.95;3.00;;;9.50;99.90;;;;;;2105164;28;20023;-71
2023/05/17 02:55:09;;;;;;;9.05;3.40;;;9.40;99.90;;;;;;2105106;28;20081;-71
2023/05/17 02:56:10;;;;;;;6.70;3.58;;;9.40;99.90;;;;;;2105292;28;20130;-71
2023/05/17 02:57:11;;;;;;;6.35;3.65;;;9.40;99.90;;;;;;2104000;28;20028;-71
2023/05/17 02:58:11;;;;;;;6.78;3.55;;;9.40;99.90;;;;;;2104819;28;20031;-71
2023/05/17 02:59:12;;;;;;;9.18;4.30;;;9.40;99.90;;;;;;2105887;28;20031;-71
2023/05/17 03:00:13;;;;;;;6.25;3.28;;;9.40;99.90;;;;;;2103625;28;20035;-71
2023/05/17 03:01:14;;;;;;;5.45;3.00;;;9.40;99.90;;;;;;2104461;28;20115;-72
2023/05/17 03:02:14;;;;;;;9.40;4.28;;;9.40;99.90;;;;;;2104322;28;20043;-72
2023/05/17 03:03:15;;;;;;;9.15;4.20;;;9.40;99.90;;;;;;2103747;28;20028;-71
2023/05/17 03:04:17;;;;;;;8.25;3.58;;;9.40;99.90;;;;;;2105296;28;20024;-71
2023/05/17 03:05:18;;;;;;;7.95;3.72;;;9.40;99.90;;;;;;2103758;28;20020;-71
2023/05/17 03:06:18;;;;;;;8.13;4.10;;;9.40;99.90;;;;;;2105684;28;20024;-71
2023/05/17 03:07:19;;;;;;;11.68;3.95;;;9.40;99.90;;;;;;2104822;28;20035;-71
2023/05/17 03:08:20;;;;;;;8.48;3.50;;;9.40;99.90;;;;;;2106391;28;20379;-71
2023/05/17 03:09:21;;;;;;;8.45;4.00;;;9.40;99.90;;;;;;2106102;28;20484;-71
2023/05/17 03:10:21;;;;;;;5.60;3.70;;;9.40;99.90;;;;;;2106691;28;20028;-71
2023/05/17 03:11:22;;;;;;;7.25;3.78;;;9.40;99.90;;;;;;2104755;28;20024;-71
2023/05/17 03:12:23;;;;;;;6.68;3.42;;;9.50;99.90;;;;;;2104436;28;20034;-71
2023/05/17 03:13:23;;;;;;;5.78;3.25;;;9.50;99.90;;;;;;2102682;28;20107;-71
2023/05/17 03:14:24;;;;;;;7.50;4.20;;;9.50;99.90;;;;;;2106395;28;20989;-71
2023/05/17 03:15:28;;;;;;;6.32;4.10;;;9.50;99.90;;;;;;2105172;28;20110;-71
2023/05/17 03:16:28;;;;;;;9.02;3.72;;;9.50;99.90;;;;;;2105009;28;20022;-71
2023/05/17 03:17:29;;;;;;;9.02;4.50;;;9.50;99.90;;;;;;2102361;28;20039;-72
2023/05/17 03:18:29;;;;;;;7.07;4.22;;;9.50;99.90;;;;;;2101018;28;20491;-71
2023/05/17 03:19:30;;;;;;;10.60;4.35;;;9.50;99.90;;;;;;2104605;28;20051;-71
2023/05/17 03:20:30;;;;;;;8.00;4.55;;;9.60;99.90;;;;;;2103730;28;20410;-71
2023/05/17 03:21:31;;;;;;;9.07;4.50;;;9.60;99.90;;;;;;2105694;28;20025;-71
2023/05/17 03:22:32;;;;;;;7.75;5.15;;;9.60;99.90;;;;;;2106551;28;20019;-71
2023/05/17 03:23:32;;;;;;;6.75;4.20;;;9.60;99.90;;;;;;2103402;28;20028;-71
2023/05/17 03:24:33;;;;;;;9.93;4.70;;;9.60;99.90;;;;;;2102955;28;20039;-71
2023/05/17 03:25:33;;;;;;;18.75;4.32;;;9.70;99.90;;;;;;2104453;28;20020;-71
2023/05/17 03:26:34;;;;;;;9.98;4.45;;;9.70;99.90;;;;;;2101754;28;20033;-71
2023/05/17 03:27:34;;;;;;;8.50;4.45;;;9.70;99.90;;;;;;2103360;28;20406;-71
2023/05/17 03:28:35;;;;;;;9.95;4.70;;;9.70;99.90;;;;;;2102640;28;20566;-71
2023/05/17 03:29:35;;;;;;;9.43;4.88;;;9.70;99.90;;;;;;2102529;28;20027;-71
2023/05/17 03:30:36;;;;;;;10.30;4.93;;;9.70;99.90;;;;;;2103510;28;20039;-71
2023/05/17 03:31:37;;;;;;;9.98;4.40;;;9.80;99.90;;;;;;2103212;28;20049;-71
2023/05/17 03:32:39;;;;;;;12.10;4.78;;;9.70;99.90;;;;;;2104099;28;20021;-72
2023/05/17 03:33:39;;;;;;;11.10;4.68;;;9.80;99.90;;;;;;2103464;28;20035;-71
2023/05/17 03:34:40;;;;;;;9.75;5.30;;;9.80;99.90;;;;;;2103925;28;20056;-71
2023/05/17 03:35:40;;;;;;;10.63;4.65;;;9.80;99.90;;;;;;2102600;28;20153;-71
2023/05/17 03:36:42;;;;;;;8.45;4.43;;;9.90;99.90;;;;;;2105299;28;20035;-71
2023/05/17 03:37:42;;;;;;;12.25;5.18;;;9.80;99.90;;;;;;2103998;28;20024;-71
2023/05/17 03:38:43;;;;;;;8.70;4.38;;;9.90;99.90;;;;;;2104598;28;20020;-71
2023/05/17 03:39:43;;;;;;;12.10;5.22;;;9.90;99.90;;;;;;2104388;28;20024;-71
2023/05/17 03:40:44;;;;;;;11.02;4.88;;;9.90;99.90;;;;;;2104053;28;20019;-71
2023/05/17 03:41:45;;;;;;;10.68;5.53;;;9.90;99.90;;;;;;2106395;28;20092;-71
2023/05/17 03:42:45;;;;;;;11.38;5.65;;;9.90;99.90;;;;;;2105923;28;20373;-71
2023/05/17 03:43:46;;;;;;;11.38;5.15;;;10.00;99.90;;;;;;2102726;28;20062;-72
2023/05/17 03:44:46;;;;;;;8.70;4.80;;;10.00;99.90;;;;;;2104361;28;20651;-71
2023/05/17 03:45:47;;;;;;;9.35;4.72;;;10.00;99.90;;;;;;2104027;28;20085;-71
2023/05/17 03:46:47;;;;;;;8.75;5.35;;;10.00;99.90;;;;;;2102202;28;21726;-71
2023/05/17 03:47:48;;;;;;;11.82;5.30;;;10.10;99.90;;;;;;2102334;28;20483;-71
2023/05/17 03:48:48;;;;;;;11.32;5.57;;;10.10;99.90;;;;;;2103741;28;20043;-72
2023/05/17 03:49:49;;;;;;;8.93;5.15;;;10.10;99.90;;;;;;2105650;28;20074;-72
2023/05/17 03:50:50;;;;;;;13.00;4.60;;;10.10;99.90;;;;;;2103710;28;20826;-72
2023/05/17 03:51:50;;;;;;;9.93;4.95;;;10.10;99.90;;;;;;2103849;28;20024;-71
2023/05/17 03:52:51;;;;;;;12.40;5.15;;;10.10;99.90;;;;;;2106274;28;20035;-72
2023/05/17 03:53:57;;;;;;;11.65;5.40;;;10.20;99.90;;;;;;2100414;28;20027;-72
2023/05/17 03:54:58;;;;;;;11.02;5.13;;;10.20;99.90;;;;;;2102615;28;20032;-72
2023/05/17 03:55:58;;;;;;;11.60;5.47;;;10.20;99.90;;;;;;2104522;28;20555;-72
2023/05/17 03:56:59;;;;;;;14.88;5.75;;;10.20;99.90;;;;;;2104440;28;20530;-72
2023/05/17 03:58:00;;;;;;;11.55;5.35;;;10.20;99.90;;;;;;2102025;28;20418;-72
2023/05/17 03:59:00;;;;;;;18.95;5.97;;;10.30;99.90;;;;;;2103277;28;20085;-72
2023/05/17 04:00:02;;;;;;;14.63;4.95;;;10.30;99.90;;;;;;2102075;28;20532;-72
2023/05/17 04:01:03;;;;;;;9.18;5.05;;;10.30;99.90;;;;;;2102336;28;20079;-72
2023/05/17 04:02:04;;;;;;;13.32;5.57;;;10.30;99.90;;;;;;2102453;28;20038;-72
2023/05/17 04:03:05;;;;;;;14.30;5.68;;;10.30;99.90;;;;;;2102737;28;20039;-72
2023/05/17 04:04:05;;;;;;;11.02;5.03;;;10.30;99.90;;;;;;2104440;28;20028;-72
2023/05/17 04:05:06;;;;;;;13.80;6.05;;;10.40;99.90;;;;;;2104445;28;20042;-72
2023/05/17 04:06:08;;;;;;;16.10;5.88;;;10.40;99.90;;;;;;2104759;28;20028;-72
2023/05/17 04:07:08;;;;;;;13.57;5.63;;;10.40;99.90;;;;;;2104434;28;20028;-72
2023/05/17 04:08:09;;;;;;;13.40;5.63;;;10.40;99.90;;;;;;2103700;28;20021;-72
2023/05/17 04:09:11;;;;;;;11.65;5.70;;;10.40;99.90;;;;;;2102207;28;20024;-72
2023/05/17 04:10:12;;;;;;;12.52;5.63;;;10.40;99.90;;;;;;2102729;28;20035;-72
2023/05/17 04:11:12;;;;;;;11.95;6.15;;;10.40;99.90;;;;;;2101063;28;20023;-71
2023/05/17 04:12:13;;;;;;;20.67;6.80;;;10.50;99.90;;;;;;2105071;28;20027;-71
2023/05/17 04:13:14;;;;;;;18.23;6.10;;;10.50;99.90;;;;;;2103872;28;20077;-71
2023/05/17 04:14:15;;;;;;;16.02;6.40;;;10.50;99.90;;;;;;2103987;28;20052;-71
2023/05/17 04:15:15;;;;;;;18.15;7.10;;;10.50;99.90;;;;;;2104366;28;20059;-71
2023/05/17 04:16:16;;;;;;;18.65;7.15;;;10.50;99.90;;;;;;2102580;28;20112;-71
2023/05/17 04:17:16;;;;;;;16.27;6.70;;;10.50;99.90;;;;;;2102214;28;20035;-71
2023/05/17 04:18:17;;;;;;;16.38;6.82;;;10.50;99.90;;;;;;2101226;28;20542;-71
2023/05/17 04:19:17;;;;;;;20.27;7.60;;;10.50;99.90;;;;;;2104032;28;20383;-71
2023/05/17 04:20:18;;;;;;;22.48;6.25;;;10.50;99.90;;;;;;2106281;28;20157;-72
2023/05/17 04:21:18;;;;;;;15.85;7.60;;;10.50;99.90;;;;;;2104346;28;20028;-71
2023/05/17 04:22:22;;;;;;;18.67;6.68;;;10.50;99.90;;;;;;2105316;28;20116;-71
2023/05/17 04:23:22;;;;;;;16.15;6.65;;;10.50;99.90;;;;;;2103032;28;20153;-71
2023/05/17 04:24:23;;;;;;;17.63;6.90;;;10.60;99.90;;;;;;2103942;28;20068;-71
2023/05/17 04:25:24;;;;;;;16.05;6.10;;;10.60;99.90;;;;;;2104621;28;20099;-71
2023/05/17 04:26:25;;;;;;;18.20;7.32;;;10.60;99.90;;;;;;2102364;28;20080;-71
2023/05/17 04:27:26;;;;;;;14.95;6.28;;;10.50;99.90;;;;;;2101266;28;20435;-71
2023/05/17 04:28:26;;;;;;;16.58;6.72;;;10.60;99.90;;;;;;2104471;28;20688;-71
2023/05/17 04:29:27;;;;;;;21.25;7.57;;;10.60;99.90;;;;;;2103507;28;20127;-71
2023/05/17 04:30:27;;;;;;;20.58;7.60;;;10.60;99.90;;;;;;2103715;28;20047;-71
2023/05/17 04:31:30;;;;;;;18.63;6.45;;;10.60;99.90;;;;;;2104335;28;20458;-71
2023/05/17 04:32:32;;;;;;;19.70;7.10;;;10.60;99.90;;;;;;2103898;28;20047;-71
2023/05/17 04:33:34;;;;;;;18.80;6.72;;;10.60;99.90;;;;;;2104689;28;20016;-71
2023/05/17 04:34:35;;;;;;;14.65;7.55;;;10.60;99.90;;;;;;2104119;28;20020;-71
2023/05/17 04:35:37;;;;;;;18.83;6.63;;;10.70;99.90;;;;;;2104932;28;20019;-71
2023/05/17 04:36:38;;;;;;;13.85;6.80;;;10.70;99.90;;;;;;2105213;28;20027;-71
2023/05/17 04:37:39;;;;;;;16.77;6.85;;;10.70;99.90;;;;;;2103068;28;20044;-71
2023/05/17 04:38:39;;;;;;;18.17;6.78;;;10.70;99.90;;;;;;2101089;28;20023;-71
2023/05/17 04:39:40;;;;;;;18.92;7.07;;;10.70;99.90;;;;;;2103240;28;20608;-71
2023/05/17 04:40:41;;;;;;;17.15;7.15;;;10.70;99.90;;;;;;2103785;28;20024;-71
2023/05/17 04:41:41;;;;;;;20.40;8.20;;;10.70;99.90;;;;;;2101910;28;20028;-71
2023/05/17 04:42:42;;;;;;;18.60;7.22;;;10.80;99.90;;;;;;2104281;28;20499;-71
2023/05/17 04:43:42;;;;;;;14.07;6.43;;;10.80;99.90;;;;;;2105237;28;20558;-71
2023/05/17 04:44:43;;;;;;;17.38;6.90;;;10.80;99.90;;;;;;2105449;28;20011;-71
2023/05/17 04:45:43;;;;;;;17.55;6.35;;;10.80;99.90;;;;;;2104078;28;20024;-72
2023/05/17 04:46:44;;;;;;;22.20;6.97;;;10.80;99.90;;;;;;2101258;28;20020;-72
2023/05/17 04:47:45;;;;;;;19.30;6.57;;;10.90;99.90;;;;;;2101817;28;20047;-72
2023/05/17 04:48:45;;;;;;;16.73;6.90;;;10.90;99.90;;;;;;2103688;28;20023;-72
2023/05/17 04:49:47;;;;;;;17.67;7.07;;;10.90;99.90;;;;;;2104072;28;20038;-72
2023/05/17 04:50:48;;;;;;;16.73;6.53;;;10.90;99.90;;;;;;2103000;28;20376;-72
2023/05/17 04:51:49;;;;;;;26.10;8.18;;;11.00;99.90;;;;;;2106477;28;20135;-72
2023/05/17 04:52:49;;;;;;;20.33;6.75;;;10.90;99.90;;;;;;2106006;28;20016;-72
2023/05/17 04:53:50;;;;;;;21.58;7.57;;;11.00;99.90;;;;;;2105652;28;20040;-72
2023/05/17 04:54:51;;;;;;;19.77;6.78;;;11.00;99.90;;;;;;2107038;28;20590;-72
2023/05/17 04:55:51;;;;;;;18.90;6.65;;;11.00;99.90;;;;;;2104951;28;20502;-72
2023/05/17 04:56:52;;;;;;;17.30;6.20;;;11.10;99.90;;;;;;2105432;28;20111;-72
2023/05/17 04:57:52;;;;;;;12.05;5.40;;;11.10;99.90;;;;;;2106252;28;20023;-72
2023/05/17 04:58:53;;;;;;;18.17;6.57;;;11.20;99.90;;;;;;2105044;28;20020;-72
2023/05/17 04:59:54;;;;;;;15.85;6.35;;;11.20;99.90;;;;;;2103868;28;20525;-72
2023/05/17 05:00:55;;;;;;;20.25;7.90;;;11.20;99.90;;;;;;2105477;28;20035;-72
2023/05/17 05:01:55;;;;;;;17.00;6.25;;;11.30;99.90;;;;;;2106475;28;20085;-72
2023/05/17 05:02:56;;;;;;;17.02;6.22;;;11.40;99.90;;;;;;2107182;28;20036;-72
2023/05/17 05:03:57;;;;;;;13.45;5.97;;;11.40;99.90;;;;;;2106853;28;20601;-72
2023/05/17 05:04:58;;;;;;;17.85;6.43;;;11.50;99.90;;;;;;2105951;28;20055;-72
2023/05/17 05:05:58;;;;;;;16.35;6.25;;;11.50;99.90;;;;;;2102800;28;20028;-72
2023/05/17 05:06:59;;;;;;;15.23;6.03;;;11.60;99.90;;;;;;2106134;28;20027;-72
2023/05/17 05:08:00;;;;;;;25.02;7.15;;;11.70;99.90;;;;;;2104736;28;20103;-72
2023/05/17 05:09:01;;;;;;;19.45;6.57;;;11.80;99.90;;;;;;2106034;28;20036;-72
2023/05/17 05:10:01;;;;;;;11.95;5.35;;;11.90;99.90;;;;;;2105075;28;20032;-72
2023/05/17 05:11:02;;;;;;;17.27;6.35;;;11.90;99.90;;;;;;2106592;28;20028;-72
2023/05/17 05:12:03;;;;;;;15.50;5.53;;;12.00;99.90;;;;;;2103138;28;20024;-72
2023/05/17 05:13:03;;;;;;;13.68;5.53;;;12.10;99.90;;;;;;2105961;28;20109;-72
2023/05/17 05:14:04;;;;;;;17.98;5.93;;;12.10;99.90;;;;;;2104443;28;20475;-72
2023/05/17 05:15:05;;;;;;;14.25;5.60;;;12.20;99.90;;;;;;2106482;28;20028;-72
2023/05/17 05:16:06;;;;;;;18.20;5.60;;;12.30;99.90;;;;;;2105593;28;20115;-72
2023/05/17 05:17:08;;;;;;;23.40;6.40;;;12.40;99.90;;;;;;2104670;28;20029;-72
2023/05/17 05:18:08;;;;;;;17.05;6.20;;;12.50;99.90;;;;;;2104607;28;20035;-72
2023/05/17 05:19:09;;;;;;;13.50;5.20;;;12.60;99.90;;;;;;2105262;28;20028;-72
2023/05/17 05:20:10;;;;;;;15.27;5.50;;;12.70;99.90;;;;;;2103675;28;20148;-72
2023/05/17 05:21:10;;;;;;;13.25;4.97;;;12.80;99.90;;;;;;2105665;28;20029;-72
2023/05/17 05:22:11;;;;;;;12.43;5.40;;;12.90;99.90;;;;;;2106167;28;20040;-72
2023/05/17 05:23:11;;;;;;;16.35;6.50;;;12.90;99.90;;;;;;2104630;28;20031;-72
2023/05/17 05:24:12;;;;;;;13.60;5.57;;;13.00;99.90;;;;;;2105636;28;20551;-72